createdAt,value
2018-09-29T00:00:23.258Z,1013.78
2018-09-29T00:01:23.148Z,1013.79
2018-09-29T00:02:23.137Z,1013.77
2018-09-29T00:03:23.127Z,1013.81
2018-09-29T00:04:23.116Z,1013.82
2018-09-29T00:05:23.107Z,1013.83
2018-09-29T00:06:23.095Z,1013.85
2018-09-29T00:07:23.084Z,1013.85
2018-09-29T00:08:23.075Z,1013.82
2018-09-29T00:09:23.063Z,1013.81
2018-09-29T00:10:23.263Z,1013.86
2018-09-29T00:11:23.044Z,1013.86
2018-09-29T00:12:23.031Z,1013.96
2018-09-29T00:13:23.020Z,1013.89
2018-09-29T00:14:23.010Z,1013.97
2018-09-29T00:15:23.004Z,1013.97
2018-09-29T00:16:23.012Z,1013.97
2018-09-29T00:17:22.977Z,1013.98
2018-09-29T00:18:22.967Z,1014.00
2018-09-29T00:19:22.959Z,1014.01
2018-09-29T00:20:22.946Z,1014.01
2018-09-29T00:21:22.937Z,1014.04
2018-09-29T00:22:22.923Z,1014.01
2018-09-29T00:23:22.913Z,1013.99
2018-09-29T00:24:22.903Z,1013.97
2018-09-29T00:25:22.892Z,1013.95
2018-09-29T00:26:22.880Z,1013.97
2018-09-29T00:27:22.872Z,1013.92
2018-09-29T00:28:22.860Z,1013.96
2018-09-29T00:29:22.849Z,1013.99
2018-09-29T00:30:22.837Z,1013.97
2018-09-29T00:31:22.827Z,1013.94
2018-09-29T00:32:22.816Z,1013.98
2018-09-29T00:33:22.827Z,1013.94
2018-09-29T00:34:22.795Z,1013.92
2018-09-29T00:35:22.784Z,1013.90
2018-09-29T00:36:22.773Z,1013.89
2018-09-29T00:37:22.763Z,1013.84
2018-09-29T00:38:22.751Z,1013.80
2018-09-29T00:39:22.740Z,1013.79
2018-09-29T00:40:22.732Z,1013.79
2018-09-29T00:41:22.720Z,1013.78
2018-09-29T00:42:22.716Z,1013.78
2018-09-29T00:43:22.698Z,1013.83
2018-09-29T00:44:22.691Z,1013.80
2018-09-29T00:45:22.677Z,1013.81
2018-09-29T00:46:22.665Z,1013.81
2018-09-29T00:47:22.655Z,1013.79
2018-09-29T00:48:22.644Z,1013.79
2018-09-29T00:49:22.634Z,1013.77
2018-09-29T00:50:22.623Z,1013.74
2018-09-29T00:51:22.611Z,1013.74
2018-09-29T00:52:22.601Z,1013.74
2018-09-29T00:53:22.590Z,1013.76
2018-09-29T00:54:22.580Z,1013.75
2018-09-29T00:55:22.569Z,1013.76
2018-09-29T00:56:22.558Z,1013.76
2018-09-29T00:57:22.550Z,1013.73
2018-09-29T00:58:22.538Z,1013.71
2018-09-29T00:59:22.538Z,1013.70
2018-09-29T01:00:22.517Z,1013.74
2018-09-29T01:01:22.509Z,1013.67
2018-09-29T01:02:22.494Z,1013.66
2018-09-29T01:03:22.484Z,1013.68
2018-09-29T01:04:22.473Z,1013.70
2018-09-29T01:05:22.463Z,1013.73
2018-09-29T01:06:22.451Z,1013.78
2018-09-29T01:07:22.442Z,1013.76
2018-09-29T01:08:22.430Z,1013.74
2018-09-29T01:09:22.420Z,1013.69
2018-09-29T01:10:22.409Z,1013.69
2018-09-29T01:11:22.403Z,1013.74
2018-09-29T01:12:22.387Z,1013.74
2018-09-29T01:13:22.379Z,1013.72
2018-09-29T01:14:22.365Z,1013.71
2018-09-29T01:15:22.358Z,1013.74
2018-09-29T01:16:22.345Z,1013.71
2018-09-29T01:17:22.335Z,1013.70
2018-09-29T01:18:22.323Z,1013.71
2018-09-29T01:19:22.314Z,1013.70
2018-09-29T01:20:22.302Z,1013.67
2018-09-29T01:21:22.993Z,1013.67
2018-09-29T01:22:22.280Z,1013.67
2018-09-29T01:23:22.270Z,1013.66
2018-09-29T01:24:22.260Z,1013.64
2018-09-29T01:25:22.249Z,1013.62
2018-09-29T01:26:22.337Z,1013.62
2018-09-29T01:27:22.227Z,1013.65
2018-09-29T01:28:22.221Z,1013.65
2018-09-29T01:29:22.206Z,1013.70
2018-09-29T01:30:22.195Z,1013.72
2018-09-29T01:31:22.185Z,1013.73
2018-09-29T01:32:22.186Z,1013.74
2018-09-29T01:33:22.164Z,1013.74
2018-09-29T01:34:22.152Z,1013.73
2018-09-29T01:35:22.142Z,1013.68
2018-09-29T01:36:22.182Z,1013.72
2018-09-29T01:37:22.123Z,1013.72
2018-09-29T01:38:22.111Z,1013.74
2018-09-29T01:39:22.100Z,1013.71
2018-09-29T01:40:22.090Z,1013.66
2018-09-29T01:41:22.078Z,1013.62
2018-09-29T01:42:22.067Z,1013.60
2018-09-29T01:43:22.057Z,1013.56
2018-09-29T01:44:22.046Z,1013.58
2018-09-29T01:45:22.038Z,1013.59
2018-09-29T01:46:22.025Z,1013.60
2018-09-29T01:47:22.014Z,1013.59
2018-09-29T01:48:22.004Z,1013.58
2018-09-29T01:49:21.994Z,1013.58
2018-09-29T01:50:21.988Z,1013.58
2018-09-29T01:51:21.975Z,1013.58
2018-09-29T01:52:21.962Z,1013.59
2018-09-29T01:53:21.951Z,1013.60
2018-09-29T01:54:21.939Z,1013.57
2018-09-29T01:55:21.929Z,1013.60
2018-09-29T01:56:21.919Z,1013.58
2018-09-29T01:57:21.909Z,1013.56
2018-09-29T01:58:21.900Z,1013.58
2018-09-29T01:59:21.887Z,1013.57
2018-09-29T02:00:21.876Z,1013.55
2018-09-29T02:01:21.866Z,1013.57
2018-09-29T02:02:21.854Z,1013.58
2018-09-29T02:03:21.845Z,1013.59
2018-09-29T02:04:21.833Z,1013.58
2018-09-29T02:05:21.822Z,1013.56
2018-09-29T02:06:21.811Z,1013.53
2018-09-29T02:07:21.800Z,1013.56
2018-09-29T02:08:21.789Z,1013.52
2018-09-29T02:09:21.784Z,1013.50
2018-09-29T02:10:21.768Z,1013.50
2018-09-29T02:11:21.757Z,1013.50
2018-09-29T02:12:21.745Z,1013.51
2018-09-29T02:13:21.735Z,1013.49
2018-09-29T02:14:21.724Z,1013.47
2018-09-29T02:15:21.713Z,1013.44
2018-09-29T02:16:21.702Z,1013.46
2018-09-29T02:17:22.293Z,1013.42
2018-09-29T02:18:21.680Z,1013.40
2018-09-29T02:19:21.669Z,1013.45
2018-09-29T02:20:21.659Z,1013.40
2018-09-29T02:21:21.649Z,1013.43
2018-09-29T02:22:21.636Z,1013.36
2018-09-29T02:23:21.626Z,1013.39
2018-09-29T02:24:21.618Z,1013.33
2018-09-29T02:25:21.605Z,1013.37
2018-09-29T02:26:21.593Z,1013.42
2018-09-29T02:27:21.582Z,1013.46
2018-09-29T02:28:21.573Z,1013.47
2018-09-29T02:29:21.560Z,1013.48
2018-09-29T02:30:21.549Z,1013.48
2018-09-29T02:31:21.538Z,1013.50
2018-09-29T02:32:21.527Z,1013.51
2018-09-29T02:33:21.517Z,1013.52
2018-09-29T02:34:21.506Z,1013.47
2018-09-29T02:35:21.494Z,1013.48
2018-09-29T02:36:21.484Z,1013.43
2018-09-29T02:37:21.475Z,1013.46
2018-09-29T02:38:21.464Z,1013.50
2018-09-29T02:39:21.450Z,1013.48
2018-09-29T02:40:21.440Z,1013.50
2018-09-29T02:41:21.428Z,1013.48
2018-09-29T02:42:21.424Z,1013.47
2018-09-29T02:43:21.405Z,1013.47
2018-09-29T02:44:21.397Z,1013.52
2018-09-29T02:45:21.384Z,1013.55
2018-09-29T02:46:21.373Z,1013.57
2018-09-29T02:47:21.361Z,1013.58
2018-09-29T02:48:21.350Z,1013.53
2018-09-29T02:49:21.340Z,1013.51
2018-09-29T02:50:21.329Z,1013.50
2018-09-29T02:51:21.316Z,1013.49
2018-09-29T02:52:21.308Z,1013.50
2018-09-29T02:53:22.097Z,1013.50
2018-09-29T02:54:21.283Z,1013.51
2018-09-29T02:55:21.272Z,1013.57
2018-09-29T02:56:21.261Z,1013.57
2018-09-29T02:57:21.253Z,1013.62
2018-09-29T02:58:21.239Z,1013.59
2018-09-29T02:59:21.229Z,1013.61
2018-09-29T03:00:21.218Z,1013.57
2018-09-29T03:01:21.205Z,1013.56
2018-09-29T03:02:21.194Z,1013.58
2018-09-29T03:03:21.183Z,1013.57
2018-09-29T03:04:21.171Z,1013.57
2018-09-29T03:05:21.161Z,1013.59
2018-09-29T03:06:21.149Z,1013.59
2018-09-29T03:07:21.170Z,1013.60
2018-09-29T03:08:21.127Z,1013.58
2018-09-29T03:09:21.114Z,1013.58
2018-09-29T03:10:21.107Z,1013.58
2018-09-29T03:11:21.093Z,1013.59
2018-09-29T03:12:21.082Z,1013.59
2018-09-29T03:13:21.071Z,1013.62
2018-09-29T03:14:21.059Z,1013.60
2018-09-29T03:15:21.047Z,1013.63
2018-09-29T03:16:21.040Z,1013.57
2018-09-29T03:17:21.025Z,1013.58
2018-09-29T03:18:21.013Z,1013.60
2018-09-29T03:19:21.125Z,1013.59
2018-09-29T03:20:20.991Z,1013.60
2018-09-29T03:21:20.981Z,1013.60
2018-09-29T03:22:20.971Z,1013.59
2018-09-29T03:23:20.960Z,1013.56
2018-09-29T03:24:20.947Z,1013.59
2018-09-29T03:25:20.935Z,1013.59
2018-09-29T03:26:20.923Z,1013.58
2018-09-29T03:27:20.912Z,1013.58
2018-09-29T03:28:20.901Z,1013.60
2018-09-29T03:29:20.890Z,1013.58
2018-09-29T03:30:21.137Z,1013.64
2018-09-29T03:31:20.924Z,1013.64
2018-09-29T03:32:20.863Z,1013.63
2018-09-29T03:33:20.844Z,1013.63
2018-09-29T03:34:20.832Z,1013.61
2018-09-29T03:35:20.821Z,1013.56
2018-09-29T03:36:20.810Z,1013.59
2018-09-29T03:37:20.799Z,1013.60
2018-09-29T03:38:20.786Z,1013.60
2018-09-29T03:39:20.774Z,1013.61
2018-09-29T03:40:20.765Z,1013.61
2018-09-29T03:41:20.751Z,1013.62
2018-09-29T03:42:20.739Z,1013.58
2018-09-29T03:43:20.729Z,1013.53
2018-09-29T03:44:20.717Z,1013.53
2018-09-29T03:45:20.706Z,1013.52
2018-09-29T03:46:20.694Z,1013.51
2018-09-29T03:47:20.682Z,1013.58
2018-09-29T03:48:20.671Z,1013.55
2018-09-29T03:49:20.659Z,1013.57
2018-09-29T03:50:20.647Z,1013.61
2018-09-29T03:51:20.636Z,1013.58
2018-09-29T03:52:20.626Z,1013.58
2018-09-29T03:53:20.613Z,1013.59
2018-09-29T03:54:20.609Z,1013.58
2018-09-29T03:55:20.592Z,1013.59
2018-09-29T03:56:20.581Z,1013.62
2018-09-29T03:57:20.570Z,1013.59
2018-09-29T03:58:20.805Z,1013.61
2018-09-29T03:59:20.543Z,1013.60
2018-09-29T04:00:20.532Z,1013.61
2018-09-29T04:01:20.520Z,1013.60
2018-09-29T04:02:20.509Z,1013.59
2018-09-29T04:03:20.496Z,1013.57
2018-09-29T04:04:20.485Z,1013.60
2018-09-29T04:05:20.475Z,1013.57
2018-09-29T04:06:20.461Z,1013.50
2018-09-29T04:07:20.451Z,1013.57
2018-09-29T04:08:20.442Z,1013.54
2018-09-29T04:09:20.432Z,1013.52
2018-09-29T04:10:20.415Z,1013.53
2018-09-29T04:11:20.403Z,1013.53
2018-09-29T04:12:20.393Z,1013.52
2018-09-29T04:13:20.394Z,1013.49
2018-09-29T04:14:20.370Z,1013.49
2018-09-29T04:15:20.356Z,1013.47
2018-09-29T04:16:20.345Z,1013.44
2018-09-29T04:17:20.333Z,1013.43
2018-09-29T04:18:20.321Z,1013.39
2018-09-29T04:19:20.760Z,1013.38
2018-09-29T04:20:20.297Z,1013.40
2018-09-29T04:21:20.288Z,1013.43
2018-09-29T04:22:20.273Z,1013.44
2018-09-29T04:23:20.264Z,1013.42
2018-09-29T04:24:20.255Z,1013.44
2018-09-29T04:25:20.238Z,1013.50
2018-09-29T04:26:20.226Z,1013.48
2018-09-29T04:27:20.214Z,1013.50
2018-09-29T04:28:20.205Z,1013.47
2018-09-29T04:29:20.191Z,1013.46
2018-09-29T04:30:20.184Z,1013.46
2018-09-29T04:31:20.169Z,1013.45
2018-09-29T04:32:20.156Z,1013.51
2018-09-29T04:33:20.144Z,1013.49
2018-09-29T04:34:20.132Z,1013.46
2018-09-29T04:35:20.372Z,1013.49
2018-09-29T04:36:20.108Z,1013.48
2018-09-29T04:37:20.096Z,1013.49
2018-09-29T04:38:20.085Z,1013.49
2018-09-29T04:39:20.071Z,1013.46
2018-09-29T04:40:20.060Z,1013.50
2018-09-29T04:41:20.048Z,1013.49
2018-09-29T04:42:20.036Z,1013.50
2018-09-29T04:43:20.151Z,1013.46
2018-09-29T04:44:20.013Z,1013.47
2018-09-29T04:45:20.000Z,1013.46
2018-09-29T04:46:19.987Z,1013.50
2018-09-29T04:47:19.975Z,1013.48
2018-09-29T04:48:19.963Z,1013.46
2018-09-29T04:49:19.952Z,1013.48
2018-09-29T04:50:19.941Z,1013.45
2018-09-29T04:51:19.928Z,1013.49
2018-09-29T04:52:19.915Z,1013.53
2018-09-29T04:53:19.904Z,1013.53
2018-09-29T04:54:19.893Z,1013.52
2018-09-29T04:55:19.879Z,1013.52
2018-09-29T04:56:19.867Z,1013.53
2018-09-29T04:57:19.855Z,1013.54
2018-09-29T04:58:19.842Z,1013.54
2018-09-29T04:59:19.830Z,1013.52
2018-09-29T05:00:19.821Z,1013.49
2018-09-29T05:01:19.807Z,1013.50
2018-09-29T05:02:19.793Z,1013.44
2018-09-29T05:03:19.782Z,1013.47
2018-09-29T05:04:20.021Z,1013.49
2018-09-29T05:05:19.758Z,1013.50
2018-09-29T05:06:19.750Z,1013.49
2018-09-29T05:07:19.736Z,1013.51
2018-09-29T05:08:19.728Z,1013.53
2018-09-29T05:09:19.914Z,1013.55
2018-09-29T05:10:19.697Z,1013.52
2018-09-29T05:11:19.685Z,1013.52
2018-09-29T05:12:19.673Z,1013.52
2018-09-29T05:13:19.669Z,1013.50
2018-09-29T05:14:19.851Z,1013.50
2018-09-29T05:15:19.637Z,1013.51
2018-09-29T05:16:19.624Z,1013.57
2018-09-29T05:17:19.615Z,1013.57
2018-09-29T05:18:19.607Z,1013.57
2018-09-29T05:19:19.589Z,1013.57
2018-09-29T05:20:19.576Z,1013.54
2018-09-29T05:21:20.368Z,1013.55
2018-09-29T05:22:19.554Z,1013.55
2018-09-29T05:23:19.657Z,1013.55
2018-09-29T05:24:19.532Z,1013.52
2018-09-29T05:25:19.518Z,1013.56
2018-09-29T05:26:19.504Z,1013.51
2018-09-29T05:27:19.498Z,1013.54
2018-09-29T05:28:19.480Z,1013.54
2018-09-29T05:29:19.468Z,1013.50
2018-09-29T05:30:19.454Z,1013.53
2018-09-29T05:31:19.444Z,1013.51
2018-09-29T05:32:19.441Z,1013.51
2018-09-29T05:33:19.422Z,1013.53
2018-09-29T05:34:19.410Z,1013.53
2018-09-29T05:35:19.398Z,1013.58
2018-09-29T05:36:19.383Z,1013.56
2018-09-29T05:37:19.377Z,1013.56
2018-09-29T05:38:19.421Z,1013.58
2018-09-29T05:39:19.557Z,1013.61
2018-09-29T05:40:19.335Z,1013.64
2018-09-29T05:41:19.323Z,1013.65
2018-09-29T05:42:19.311Z,1013.64
2018-09-29T05:43:19.300Z,1013.67
2018-09-29T05:44:19.291Z,1013.66
2018-09-29T05:45:19.277Z,1013.69
2018-09-29T05:46:19.263Z,1013.71
2018-09-29T05:47:19.255Z,1013.74
2018-09-29T05:48:19.494Z,1013.73
2018-09-29T05:49:19.232Z,1013.76
2018-09-29T05:50:19.218Z,1013.75
2018-09-29T05:51:19.204Z,1013.71
2018-09-29T05:52:19.196Z,1013.73
2018-09-29T05:53:19.180Z,1013.73
2018-09-29T05:54:19.168Z,1013.77
2018-09-29T05:55:19.158Z,1013.77
2018-09-29T05:56:19.347Z,1013.81
2018-09-29T05:57:19.136Z,1013.78
2018-09-29T05:58:19.120Z,1013.75
2018-09-29T05:59:19.108Z,1013.77
2018-09-29T06:00:19.191Z,1013.78
2018-09-29T06:01:19.122Z,1013.79
2018-09-29T06:02:19.071Z,1013.78
2018-09-29T06:03:19.058Z,1013.81
2018-09-29T06:04:19.047Z,1013.76
2018-09-29T06:05:19.076Z,1013.79
2018-09-29T06:06:19.023Z,1013.81
2018-09-29T06:07:19.106Z,1013.79
2018-09-29T06:08:19.008Z,1013.76
2018-09-29T06:09:18.989Z,1013.79
2018-09-29T06:10:18.976Z,1013.78
2018-09-29T06:11:18.964Z,1013.79
2018-09-29T06:12:18.953Z,1013.77
2018-09-29T06:13:18.998Z,1013.78
2018-09-29T06:14:18.929Z,1013.81
2018-09-29T06:15:18.918Z,1013.82
2018-09-29T06:16:18.906Z,1013.81
2018-09-29T06:17:18.895Z,1013.84
2018-09-29T06:18:18.884Z,1013.87
2018-09-29T06:19:18.874Z,1013.86
2018-09-29T06:20:18.861Z,1013.84
2018-09-29T06:21:18.858Z,1013.88
2018-09-29T06:22:18.835Z,1013.88
2018-09-29T06:23:18.823Z,1013.90
2018-09-29T06:24:18.812Z,1013.88
2018-09-29T06:25:18.801Z,1013.92
2018-09-29T06:26:18.790Z,1013.90
2018-09-29T06:27:18.777Z,1013.91
2018-09-29T06:28:18.770Z,1013.89
2018-09-29T06:29:18.754Z,1013.90
2018-09-29T06:30:18.947Z,1013.90
2018-09-29T06:31:18.730Z,1013.88
2018-09-29T06:32:18.719Z,1013.90
2018-09-29T06:33:18.707Z,1013.92
2018-09-29T06:34:18.709Z,1013.88
2018-09-29T06:35:18.686Z,1013.91
2018-09-29T06:36:18.672Z,1013.88
2018-09-29T06:37:18.663Z,1013.88
2018-09-29T06:38:18.703Z,1013.88
2018-09-29T06:39:18.640Z,1013.88
2018-09-29T06:40:18.627Z,1013.86
2018-09-29T06:41:18.615Z,1013.87
2018-09-29T06:42:18.606Z,1013.83
2018-09-29T06:43:18.592Z,1013.85
2018-09-29T06:44:18.584Z,1013.90
2018-09-29T06:45:18.570Z,1013.89
2018-09-29T06:46:18.559Z,1013.86
2018-09-29T06:47:18.552Z,1013.83
2018-09-29T06:48:18.539Z,1013.84
2018-09-29T06:49:18.526Z,1013.85
2018-09-29T06:50:18.518Z,1013.87
2018-09-29T06:51:18.503Z,1013.87
2018-09-29T06:52:18.499Z,1013.89
2018-09-29T06:53:18.483Z,1013.91
2018-09-29T06:54:18.487Z,1013.90
2018-09-29T06:55:18.460Z,1013.88
2018-09-29T06:56:18.452Z,1013.92
2018-09-29T06:57:18.438Z,1013.87
2018-09-29T06:58:18.432Z,1013.90
2018-09-29T06:59:18.419Z,1013.91
2018-09-29T07:00:18.409Z,1013.89
2018-09-29T07:01:18.404Z,1013.87
2018-09-29T07:02:18.389Z,1013.89
2018-09-29T07:03:18.373Z,1013.96
2018-09-29T07:04:18.362Z,1013.97
2018-09-29T07:05:18.352Z,1013.98
2018-09-29T07:06:18.344Z,1013.96
2018-09-29T07:07:18.330Z,1013.98
2018-09-29T07:08:18.323Z,1013.97
2018-09-29T07:09:18.309Z,1013.97
2018-09-29T07:10:18.298Z,1013.97
2018-09-29T07:11:18.289Z,1013.94
2018-09-29T07:12:18.278Z,1013.96
2018-09-29T07:13:18.269Z,1013.97
2018-09-29T07:14:18.257Z,1013.97
2018-09-29T07:15:18.248Z,1013.94
2018-09-29T07:16:18.237Z,1013.97
2018-09-29T07:17:18.227Z,1013.97
2018-09-29T07:18:18.222Z,1013.95
2018-09-29T07:19:18.206Z,1013.99
2018-09-29T07:20:18.197Z,1013.98
2018-09-29T07:21:18.194Z,1013.94
2018-09-29T07:22:18.178Z,1013.96
2018-09-29T07:23:18.222Z,1013.92
2018-09-29T07:24:18.158Z,1013.87
2018-09-29T07:25:18.207Z,1013.87
2018-09-29T07:26:18.139Z,1013.87
2018-09-29T07:27:18.130Z,1013.92
2018-09-29T07:28:18.120Z,1013.92
2018-09-29T07:29:18.111Z,1013.94
2018-09-29T07:30:18.104Z,1014.02
2018-09-29T07:31:18.149Z,1014.00
2018-09-29T07:32:18.087Z,1014.02
2018-09-29T07:33:18.080Z,1014.03
2018-09-29T07:34:18.071Z,1014.03
2018-09-29T07:35:18.057Z,1014.04
2018-09-29T07:36:18.051Z,1014.01
2018-09-29T07:37:18.046Z,1013.98
2018-09-29T07:38:18.035Z,1014.00
2018-09-29T07:39:18.027Z,1013.99
2018-09-29T07:40:18.027Z,1013.99
2018-09-29T07:41:18.013Z,1013.97
2018-09-29T07:42:18.009Z,1013.92
2018-09-29T07:43:18.002Z,1013.97
2018-09-29T07:44:17.993Z,1013.96
2018-09-29T07:45:17.988Z,1013.99
2018-09-29T07:46:17.991Z,1014.01
2018-09-29T07:47:17.976Z,1014.03
2018-09-29T07:48:17.974Z,1013.99
2018-09-29T07:49:18.047Z,1014.01
2018-09-29T07:50:17.960Z,1014.02
2018-09-29T07:51:17.954Z,1014.04
2018-09-29T07:52:17.951Z,1014.04
2018-09-29T07:53:18.351Z,1014.04
2018-09-29T07:54:17.942Z,1014.03
2018-09-29T07:55:17.939Z,1014.09
2018-09-29T07:56:17.991Z,1014.05
2018-09-29T07:57:17.937Z,1014.01
2018-09-29T07:58:17.928Z,1014.00
2018-09-29T07:59:17.929Z,1014.01
2018-09-29T08:00:17.925Z,1013.97
2018-09-29T08:01:17.919Z,1013.95
2018-09-29T08:02:17.916Z,1013.99
2018-09-29T08:03:17.913Z,1013.96
2018-09-29T08:04:17.912Z,1013.98
2018-09-29T08:05:17.909Z,1013.98
2018-09-29T08:06:17.971Z,1013.94
2018-09-29T08:07:17.906Z,1013.99
2018-09-29T08:08:17.901Z,1013.97
2018-09-29T08:09:18.102Z,1013.95
2018-09-29T08:10:17.897Z,1013.96
2018-09-29T08:11:17.895Z,1013.99
2018-09-29T08:12:17.949Z,1014.01
2018-09-29T08:13:17.894Z,1014.02
2018-09-29T08:14:17.889Z,1014.03
2018-09-29T08:15:17.888Z,1014.00
2018-09-29T08:16:17.889Z,1014.00
2018-09-29T08:17:17.887Z,1014.01
2018-09-29T08:18:17.885Z,1014.04
2018-09-29T08:19:17.883Z,1013.93
2018-09-29T08:20:17.883Z,1013.93
2018-09-29T08:21:17.883Z,1013.91
2018-09-29T08:22:18.085Z,1013.91
2018-09-29T08:23:17.884Z,1013.88
2018-09-29T08:24:17.955Z,1013.88
2018-09-29T08:25:17.880Z,1013.88
2018-09-29T08:26:17.881Z,1013.87
2018-09-29T08:27:17.879Z,1013.88
2018-09-29T08:28:17.882Z,1013.87
2018-09-29T08:29:17.882Z,1013.85
2018-09-29T08:30:17.880Z,1013.91
2018-09-29T08:31:17.880Z,1013.82
2018-09-29T08:32:17.931Z,1013.85
2018-09-29T08:33:17.888Z,1013.84
2018-09-29T08:34:17.896Z,1013.82
2018-09-29T08:35:17.883Z,1013.83
2018-09-29T08:36:17.885Z,1013.84
2018-09-29T08:37:17.890Z,1013.85
2018-09-29T08:38:17.888Z,1013.82
2018-09-29T08:39:17.892Z,1013.82
2018-09-29T08:40:17.892Z,1013.81
2018-09-29T08:41:17.894Z,1013.81
2018-09-29T08:42:17.892Z,1013.86
2018-09-29T08:43:17.893Z,1013.82
2018-09-29T08:44:17.894Z,1013.77
2018-09-29T08:45:17.895Z,1013.77
2018-09-29T08:46:17.898Z,1013.80
2018-09-29T08:47:17.897Z,1013.73
2018-09-29T08:48:17.899Z,1013.77
2018-09-29T08:49:17.900Z,1013.80
2018-09-29T08:50:17.903Z,1013.77
2018-09-29T08:51:17.903Z,1013.79
2018-09-29T08:52:17.907Z,1013.78
2018-09-29T08:53:17.973Z,1013.82
2018-09-29T08:54:17.910Z,1013.83
2018-09-29T08:55:17.912Z,1013.84
2018-09-29T08:56:17.915Z,1013.76
2018-09-29T08:57:17.918Z,1013.80
2018-09-29T08:58:17.919Z,1013.74
2018-09-29T08:59:17.926Z,1013.78
2018-09-29T09:00:17.926Z,1013.77
2018-09-29T09:01:17.928Z,1013.75
2018-09-29T09:02:17.937Z,1013.77
2018-09-29T09:03:18.138Z,1013.74
2018-09-29T09:04:17.937Z,1013.75
2018-09-29T09:05:17.942Z,1013.75
2018-09-29T09:06:17.945Z,1013.78
2018-09-29T09:07:17.944Z,1013.77
2018-09-29T09:08:17.947Z,1013.82
2018-09-29T09:09:17.978Z,1013.81
2018-09-29T09:10:17.954Z,1013.82
2018-09-29T09:11:17.958Z,1013.85
2018-09-29T09:12:17.962Z,1013.89
2018-09-29T09:13:17.964Z,1013.85
2018-09-29T09:14:18.217Z,1013.87
2018-09-29T09:15:17.974Z,1013.86
2018-09-29T09:16:17.974Z,1013.89
2018-09-29T09:18:17.984Z,1013.91
2018-09-29T09:19:17.983Z,1013.93
2018-09-29T09:20:17.988Z,1013.95
2018-09-29T09:21:18.197Z,1013.93
2018-09-29T09:22:17.995Z,1013.92
2018-09-29T09:23:18.038Z,1013.85
2018-09-29T09:24:18.183Z,1013.88
2018-09-29T09:25:18.008Z,1013.86
2018-09-29T09:26:18.017Z,1013.91
2018-09-29T09:27:18.019Z,1013.83
2018-09-29T09:28:18.025Z,1013.89
2018-09-29T09:29:18.034Z,1013.96
2018-09-29T09:30:18.057Z,1013.97
2018-09-29T09:31:18.038Z,1013.94
2018-09-29T09:32:18.038Z,1013.95
2018-09-29T09:33:18.045Z,1013.97
2018-09-29T09:34:18.047Z,1013.94
2018-09-29T09:35:18.052Z,1013.92
2018-09-29T09:36:18.262Z,1013.91
2018-09-29T09:37:18.063Z,1013.91
2018-09-29T09:38:18.066Z,1013.89
2018-09-29T09:39:18.071Z,1013.87
2018-09-29T09:40:18.079Z,1013.78
2018-09-29T09:41:18.083Z,1013.80
2018-09-29T09:42:18.084Z,1013.79
2018-09-29T09:43:18.090Z,1013.78
2018-09-29T09:44:18.094Z,1013.73
2018-09-29T09:45:18.100Z,1013.72
2018-09-29T09:46:18.103Z,1013.68
2018-09-29T09:47:18.108Z,1013.68
2018-09-29T09:48:18.114Z,1013.66
2018-09-29T09:49:18.125Z,1013.67
2018-09-29T09:50:18.125Z,1013.70
2018-09-29T09:51:18.132Z,1013.64
2018-09-29T09:52:18.140Z,1013.68
2018-09-29T09:53:18.136Z,1013.67
2018-09-29T09:54:18.140Z,1013.61
2018-09-29T09:55:18.144Z,1013.61
2018-09-29T09:56:18.150Z,1013.57
2018-09-29T09:57:18.355Z,1013.55
2018-09-29T09:58:18.162Z,1013.60
2018-09-29T09:59:18.162Z,1013.52
2018-09-29T10:00:18.171Z,1013.54
2018-09-29T10:01:18.170Z,1013.55
2018-09-29T10:02:18.175Z,1013.51
2018-09-29T10:03:18.179Z,1013.55
2018-09-29T10:04:18.184Z,1013.50
2018-09-29T10:05:18.189Z,1013.50
2018-09-29T10:06:18.219Z,1013.48
2018-09-29T10:07:18.200Z,1013.49
2018-09-29T10:08:18.202Z,1013.41
2018-09-29T10:09:18.209Z,1013.43
2018-09-29T10:10:18.212Z,1013.39
2018-09-29T10:11:18.216Z,1013.36
2018-09-29T10:12:18.221Z,1013.36
2018-09-29T10:13:18.228Z,1013.36
2018-09-29T10:14:18.232Z,1013.36
2018-09-29T10:15:18.437Z,1013.30
2018-09-29T10:16:18.241Z,1013.27
2018-09-29T10:17:18.292Z,1013.29
2018-09-29T10:18:18.251Z,1013.26
2018-09-29T10:19:18.259Z,1013.27
2018-09-29T10:20:18.274Z,1013.21
2018-09-29T10:21:18.270Z,1013.20
2018-09-29T10:22:18.278Z,1013.12
2018-09-29T10:23:18.288Z,1013.13
2018-09-29T10:24:18.287Z,1013.10
2018-09-29T10:26:18.501Z,1013.04
2018-09-29T10:27:18.304Z,1012.98
2018-09-29T10:28:18.314Z,1013.02
2018-09-29T10:29:18.521Z,1013.01
2018-09-29T10:30:18.320Z,1013.01
2018-09-29T10:31:18.331Z,1012.99
2018-09-29T10:32:18.331Z,1012.99
2018-09-29T10:33:18.337Z,1012.96
2018-09-29T10:34:18.350Z,1012.91
2018-09-29T10:35:18.347Z,1012.95
2018-09-29T10:36:18.426Z,1012.93
2018-09-29T10:37:18.364Z,1012.92
2018-09-29T10:38:18.363Z,1012.90
2018-09-29T10:39:18.372Z,1012.88
2018-09-29T10:40:18.374Z,1012.88
2018-09-29T10:41:18.378Z,1012.87
2018-09-29T10:42:18.384Z,1012.85
2018-09-29T10:43:18.390Z,1012.87
2018-09-29T10:44:18.456Z,1012.85
2018-09-29T10:45:18.402Z,1012.84
2018-09-29T10:46:18.406Z,1012.90
2018-09-29T10:47:18.412Z,1012.86
2018-09-29T10:49:18.424Z,1012.83
2018-09-29T10:50:18.427Z,1012.77
2018-09-29T10:51:18.440Z,1012.80
2018-09-29T10:52:18.439Z,1012.80
2018-09-29T10:53:18.446Z,1012.76
2018-09-29T10:54:18.650Z,1012.77
2018-09-29T10:55:18.459Z,1012.78
2018-09-29T10:56:18.664Z,1012.79
2018-09-29T10:57:18.467Z,1012.77
2018-09-29T10:58:18.472Z,1012.77
2018-09-29T10:59:18.474Z,1012.73
2018-09-29T11:00:18.480Z,1012.73
2018-09-29T11:01:18.486Z,1012.71
2018-09-29T11:02:18.489Z,1012.68
2018-09-29T11:03:18.494Z,1012.70
2018-09-29T11:04:18.499Z,1012.72
2018-09-29T11:05:18.507Z,1012.74
2018-09-29T11:06:18.508Z,1012.74
2018-09-29T11:07:18.513Z,1012.64
2018-09-29T11:08:18.519Z,1012.69
2018-09-29T11:09:18.521Z,1012.68
2018-09-29T11:10:18.529Z,1012.68
2018-09-29T11:11:18.528Z,1012.69
2018-09-29T11:12:18.533Z,1012.60
2018-09-29T11:13:18.541Z,1012.63
2018-09-29T11:14:18.549Z,1012.57
2018-09-29T11:15:18.545Z,1012.58
2018-09-29T11:16:18.559Z,1012.57
2018-09-29T11:17:18.561Z,1012.58
2018-09-29T11:18:18.555Z,1012.54
2018-09-29T11:19:18.560Z,1012.47
2018-09-29T11:20:18.563Z,1012.46
2018-09-29T11:21:18.567Z,1012.48
2018-09-29T11:22:18.571Z,1012.43
2018-09-29T11:23:18.579Z,1012.46
2018-09-29T11:24:18.577Z,1012.46
2018-09-29T11:25:18.582Z,1012.42
2018-09-29T11:26:18.584Z,1012.42
2018-09-29T11:27:18.588Z,1012.40
2018-09-29T11:28:18.664Z,1012.36
2018-09-29T11:29:18.600Z,1012.35
2018-09-29T11:30:18.601Z,1012.32
2018-09-29T11:31:18.605Z,1012.29
2018-09-29T11:32:18.610Z,1012.30
2018-09-29T11:33:18.608Z,1012.34
2018-09-29T11:34:18.611Z,1012.32
2018-09-29T11:35:18.615Z,1012.31
2018-09-29T11:36:18.619Z,1012.26
2018-09-29T11:37:18.624Z,1012.31
2018-09-29T11:38:18.629Z,1012.30
2018-09-29T11:39:18.695Z,1012.27
2018-09-29T11:40:18.634Z,1012.20
2018-09-29T11:41:18.640Z,1012.24
2018-09-29T11:42:18.643Z,1012.19
2018-09-29T11:43:18.650Z,1012.18
2018-09-29T11:44:18.652Z,1012.22
2018-09-29T11:45:18.653Z,1012.23
2018-09-29T11:46:18.657Z,1012.17
2018-09-29T11:47:18.654Z,1012.19
2018-09-29T11:48:18.662Z,1012.22
2018-09-29T11:49:18.667Z,1012.17
2018-09-29T11:50:18.663Z,1012.12
2018-09-29T11:51:18.666Z,1012.04
2018-09-29T11:52:18.669Z,1012.08
2018-09-29T11:53:18.673Z,1012.00
2018-09-29T11:54:18.674Z,1012.00
2018-09-29T11:55:18.677Z,1012.01
2018-09-29T11:56:18.781Z,1012.02
2018-09-29T11:57:18.685Z,1011.98
2018-09-29T11:58:18.684Z,1011.95
2018-09-29T11:59:18.688Z,1011.91
2018-09-29T12:00:18.690Z,1011.85
2018-09-29T12:01:18.694Z,1011.83
2018-09-29T12:02:18.870Z,1011.83
2018-09-29T12:03:18.699Z,1011.86
2018-09-29T12:04:18.702Z,1011.80
2018-09-29T12:05:18.705Z,1011.83
2018-09-29T12:06:18.762Z,1011.81
2018-09-29T12:07:18.814Z,1011.76
2018-09-29T12:08:18.713Z,1011.76